createdAt,value
2022-10-05T00:00:00.074Z,101383.69
2022-10-05T00:02:27.338Z,101378.84
2022-10-05T00:04:56.748Z,101383.81
2022-10-05T00:07:24.708Z,101378.50
2022-10-05T00:09:59.346Z,101379.25
2022-10-05T00:12:29.705Z,101375.13
2022-10-05T00:15:00.453Z,101375.75
2022-10-05T00:17:30.240Z,101374.63
2022-10-05T00:19:57.369Z,101374.00
2022-10-05T00:22:30.424Z,101363.44
2022-10-05T00:25:00.165Z,101365.66
2022-10-05T00:27:37.992Z,101364.06
2022-10-05T00:30:15.734Z,101362.19
2022-10-05T00:32:42.886Z,101367.91
2022-10-05T00:35:11.037Z,101359.97
2022-10-05T00:37:37.837Z,101356.47
2022-10-05T00:40:13.908Z,101366.19
2022-10-05T00:42:48.577Z,101344.94
2022-10-05T00:45:37.793Z,101346.56
2022-10-05T00:48:32.829Z,101339.47
2022-10-05T00:51:10.563Z,101326.66
2022-10-05T00:53:43.365Z,101327.25
2022-10-05T00:56:13.114Z,101326.06
2022-10-05T00:58:55.671Z,101324.19
2022-10-05T01:01:47.468Z,101329.28
2022-10-05T01:04:45.144Z,101306.44
2022-10-05T01:07:44.292Z,101315.38
2022-10-05T01:10:25.943Z,101307.69
2022-10-05T01:13:17.186Z,101315.63
2022-10-05T01:15:54.380Z,101318.13
2022-10-05T01:18:55.112Z,101295.38
2022-10-05T01:21:24.623Z,101290.28
2022-10-05T01:24:06.487Z,101294.50
2022-10-05T01:26:39.139Z,101292.28
2022-10-05T01:29:23.955Z,101284.19
2022-10-05T01:32:05.655Z,101278.97
2022-10-05T01:34:42.977Z,101287.16
2022-10-05T01:37:20.716Z,101269.44
2022-10-05T01:39:59.440Z,101276.38
2022-10-05T01:42:25.987Z,101270.41
2022-10-05T01:45:01.000Z,101268.28
2022-10-05T01:47:46.970Z,101255.88
2022-10-05T01:50:20.656Z,101253.03
2022-10-05T01:52:50.184Z,101256.22
2022-10-05T01:55:22.702Z,101252.38
2022-10-05T01:58:11.610Z,101255.13
2022-10-05T02:00:59.585Z,101250.78
2022-10-05T02:03:37.159Z,101251.41
2022-10-05T02:06:15.045Z,101241.84
2022-10-05T02:08:48.647Z,101241.34
2022-10-05T02:11:15.356Z,101242.22
2022-10-05T02:14:03.861Z,101240.47
2022-10-05T02:16:40.399Z,101219.97
2022-10-05T02:19:21.010Z,101223.56
2022-10-05T02:22:07.568Z,101224.22
2022-10-05T02:24:53.012Z,101215.88
2022-10-05T02:27:26.324Z,101204.34
2022-10-05T02:29:59.927Z,101198.69
2022-10-05T02:32:32.698Z,101202.56
2022-10-05T02:35:04.081Z,101198.84
2022-10-05T02:37:38.536Z,101193.66
2022-10-05T02:40:41.994Z,101185.28
2022-10-05T02:43:15.414Z,101180.06
2022-10-05T02:45:58.209Z,101187.03
2022-10-05T02:48:39.204Z,101174.53
2022-10-05T02:51:10.944Z,101169.38
2022-10-05T02:53:43.630Z,101166.16
2022-10-05T02:56:19.032Z,101166.28
2022-10-05T02:59:04.387Z,101161.97
2022-10-05T03:01:50.931Z,101169.66
2022-10-05T03:04:41.799Z,101163.59
2022-10-05T03:07:23.487Z,101153.13
2022-10-05T03:10:00.913Z,101144.66
2022-10-05T03:12:52.993Z,101135.47
2022-10-05T03:15:24.373Z,101126.31
2022-10-05T03:18:07.177Z,101133.56
2022-10-05T03:20:42.751Z,101121.69
2022-10-05T03:23:28.418Z,101123.09
2022-10-05T03:26:10.405Z,101123.84
2022-10-05T03:28:46.580Z,101115.00
2022-10-05T03:31:19.324Z,101115.13
2022-10-05T03:34:14.867Z,101103.84
2022-10-05T03:37:04.565Z,101107.81
2022-10-05T03:39:54.649Z,101098.84
2022-10-05T03:42:33.550Z,101088.56
2022-10-05T03:45:18.137Z,101098.75
2022-10-05T03:48:01.678Z,101090.34
2022-10-05T03:50:31.447Z,101083.81
2022-10-05T03:53:04.822Z,101085.56
2022-10-05T03:55:39.405Z,101089.28
2022-10-05T03:58:15.421Z,101087.78
2022-10-05T04:00:45.503Z,101091.97
2022-10-05T04:03:26.134Z,101096.56
2022-10-05T04:06:03.042Z,101087.88
2022-10-05T04:08:56.020Z,101077.44
2022-10-05T04:11:46.729Z,101077.13
2022-10-05T04:14:21.388Z,101083.72
2022-10-05T04:16:54.700Z,101082.81
2022-10-05T04:19:39.603Z,101073.19
2022-10-05T04:22:19.673Z,101070.22
2022-10-05T04:25:06.521Z,101076.00
2022-10-05T04:27:41.843Z,101069.50
2022-10-05T04:30:13.649Z,101065.84
2022-10-05T04:32:46.219Z,101059.97
2022-10-05T04:35:46.860Z,101049.28
2022-10-05T04:38:34.995Z,101046.41
2022-10-05T04:41:10.748Z,101032.16
2022-10-05T04:44:05.456Z,101022.59
2022-10-05T04:47:16.310Z,101020.75
2022-10-05T04:49:42.815Z,101005.31
2022-10-05T04:58:27.569Z,101016.03
2022-10-05T05:01:14.576Z,101008.59
2022-10-05T05:03:44.188Z,101006.56
2022-10-05T05:06:29.625Z,101002.47
2022-10-05T05:09:24.583Z,101009.09
2022-10-05T05:12:19.367Z,100997.94
2022-10-05T05:15:27.760Z,100996.31
2022-10-05T05:17:57.327Z,100988.97
2022-10-05T05:20:56.636Z,100987.66
2022-10-05T05:23:41.959Z,100991.53
2022-10-05T05:26:29.202Z,101000.03
2022-10-05T05:29:05.664Z,100987.81
2022-10-05T05:31:32.260Z,100981.53
2022-10-05T05:34:21.790Z,100970.22
2022-10-05T05:37:13.149Z,100979.66
2022-10-05T05:39:46.083Z,100973.84
2022-10-05T05:42:42.256Z,100960.16
2022-10-05T05:45:29.162Z,100967.69
2022-10-05T05:48:00.172Z,100956.69
2022-10-05T05:50:54.025Z,100962.91
2022-10-05T05:53:32.202Z,100948.53
2022-10-05T05:56:09.396Z,100958.22
2022-10-05T05:59:01.187Z,100960.97
2022-10-05T06:01:37.683Z,100971.25
2022-10-05T06:04:15.734Z,100960.94
2022-10-05T06:06:54.041Z,100962.31
2022-10-05T06:09:32.364Z,100948.09
2022-10-05T06:12:06.718Z,100945.50
2022-10-05T06:14:49.763Z,100941.31
2022-10-05T06:17:24.830Z,100943.25
2022-10-05T06:20:01.115Z,100942.34
2022-10-05T06:22:37.416Z,100945.03
2022-10-05T06:25:13.124Z,100935.31
2022-10-05T06:28:01.339Z,100932.78
2022-10-05T06:30:52.097Z,100940.50
2022-10-05T06:33:35.560Z,100946.09
2022-10-05T06:36:40.099Z,100947.28
2022-10-05T06:39:17.776Z,100955.09
2022-10-05T06:42:01.260Z,100960.03
2022-10-05T06:44:57.143Z,100945.44
2022-10-05T06:47:31.377Z,100943.09
2022-10-05T06:50:29.418Z,100944.97
2022-10-05T06:53:16.085Z,100952.69
2022-10-05T06:56:07.751Z,100963.91
2022-10-05T06:58:55.587Z,100970.97
2022-10-05T07:02:05.264Z,100957.16
2022-10-05T07:04:50.902Z,100973.91
2022-10-05T07:07:39.954Z,100968.91
2022-10-05T07:10:33.888Z,100977.19
2022-10-05T07:13:24.269Z,100974.19
2022-10-05T07:16:17.482Z,100980.91
2022-10-05T07:18:50.143Z,100973.25
2022-10-05T07:21:41.824Z,100980.78
2022-10-05T07:24:11.655Z,100980.13
2022-10-05T07:26:49.343Z,100983.78
2022-10-05T07:29:37.736Z,100980.19
2022-10-05T07:32:28.066Z,100980.88
2022-10-05T07:35:02.976Z,100992.22
2022-10-05T07:37:55.012Z,100976.81
2022-10-05T07:40:41.934Z,100990.84
2022-10-05T07:43:32.072Z,100990.81
2022-10-05T07:46:36.700Z,101000.91
2022-10-05T07:49:13.848Z,101003.25
2022-10-05T07:51:46.144Z,100995.88
2022-10-05T07:54:15.820Z,101005.69
2022-10-05T07:56:50.260Z,100988.13
2022-10-05T07:59:44.528Z,101003.63
2022-10-05T08:02:27.043Z,101002.31
2022-10-05T08:05:09.396Z,101003.97
2022-10-05T08:07:37.181Z,101009.94
2022-10-05T08:10:17.820Z,101014.47
2022-10-05T08:13:01.775Z,100994.31
2022-10-05T08:15:38.338Z,100982.84
2022-10-05T08:18:09.630Z,100988.34
2022-10-05T08:20:54.716Z,100992.13
2022-10-05T08:23:49.107Z,100991.25
2022-10-05T08:26:31.377Z,101009.13
2022-10-05T08:29:01.031Z,101014.09
2022-10-05T08:31:41.201Z,101013.88
2022-10-05T08:34:30.996Z,101010.66
2022-10-05T08:37:03.779Z,101013.56
2022-10-05T08:39:37.478Z,101009.34
2022-10-05T08:42:28.906Z,101034.22
2022-10-05T08:45:21.073Z,101032.03
2022-10-05T08:48:01.730Z,101024.66
2022-10-05T08:50:41.013Z,101027.47
2022-10-05T08:53:45.222Z,101028.59
2022-10-05T08:56:19.731Z,101039.44
2022-10-05T08:59:13.400Z,101047.53
2022-10-05T09:02:33.926Z,101052.97
2022-10-05T09:05:37.831Z,101057.59
2022-10-05T09:08:31.043Z,101058.88
2022-10-05T09:11:21.911Z,101055.31
2022-10-05T09:13:51.387Z,101053.75
2022-10-05T09:16:28.103Z,101051.44
2022-10-05T09:19:16.465Z,101055.78
2022-10-05T09:21:59.124Z,101048.41
2022-10-05T09:24:48.237Z,101063.00
2022-10-05T09:27:21.188Z,101067.34
2022-10-05T09:30:09.728Z,101069.63
2022-10-05T09:33:10.739Z,101073.38
2022-10-05T09:36:27.518Z,101065.13
2022-10-05T09:39:21.005Z,101067.88
2022-10-05T09:41:57.632Z,101069.13
2022-10-05T09:45:08.985Z,101072.13
2022-10-05T09:48:06.473Z,101070.75
2022-10-05T09:50:48.090Z,101055.44
2022-10-05T09:53:48.659Z,101067.75
2022-10-05T09:56:34.926Z,101067.56
2022-10-05T09:59:22.162Z,101067.44
2022-10-05T10:02:04.858Z,101068.75
2022-10-05T10:04:37.553Z,101055.03
2022-10-05T10:07:30.728Z,101050.09
2022-10-05T10:10:15.597Z,101059.38
2022-10-05T10:12:51.468Z,101057.34
2022-10-05T10:15:21.125Z,101058.81
2022-10-05T10:18:22.831Z,101044.66
2022-10-05T10:21:25.105Z,101048.13
2022-10-05T10:24:36.558Z,101059.09
2022-10-05T10:27:35.206Z,101061.28
2022-10-05T10:30:56.359Z,101058.97
2022-10-05T10:33:38.042Z,101059.84
2022-10-05T10:36:19.701Z,101049.13
2022-10-05T10:38:58.534Z,101058.72
2022-10-05T10:41:34.209Z,101060.28
2022-10-05T10:44:38.627Z,101055.22
2022-10-05T10:47:08.332Z,101072.56
2022-10-05T10:50:07.314Z,101072.25
2022-10-05T10:52:46.950Z,101069.22
2022-10-05T10:56:04.743Z,101075.59
2022-10-05T10:58:46.611Z,101074.28
2022-10-05T11:01:28.643Z,101075.19
2022-10-05T11:03:58.256Z,101081.09
2022-10-05T11:07:02.360Z,101078.91
2022-10-05T11:09:56.941Z,101080.34
2022-10-05T11:12:43.103Z,101087.25
2022-10-05T11:15:17.473Z,101092.34
2022-10-05T11:18:06.630Z,101090.00
2022-10-05T11:20:57.779Z,101105.75
2022-10-05T11:23:42.724Z,101107.50
2022-10-05T11:26:15.652Z,101114.59
2022-10-05T11:29:00.440Z,101107.22
2022-10-05T11:31:54.606Z,101101.44
2022-10-05T11:34:48.273Z,101102.56
2022-10-05T11:37:41.042Z,101097.38
2022-10-05T11:40:17.423Z,101108.03
2022-10-05T11:43:22.993Z,101097.69
2022-10-05T11:46:08.338Z,101096.63
2022-10-05T11:49:04.039Z,101099.69
2022-10-05T11:51:36.094Z,101100.25
2022-10-05T11:54:12.587Z,101096.78
2022-10-05T11:56:52.297Z,101100.72
2022-10-05T11:59:34.708Z,101096.78
2022-10-05T12:02:25.706Z,101098.69
2022-10-05T12:05:03.376Z,101099.41
2022-10-05T12:07:55.076Z,101099.13
2022-10-05T12:10:45.565Z,101102.03
2022-10-05T12:13:15.116Z,101100.84
2022-10-05T12:15:50.250Z,101102.72
2022-10-05T12:18:22.111Z,101107.22
2022-10-05T12:21:02.140Z,101102.28
2022-10-05T12:23:40.440Z,101107.22
2022-10-05T12:26:13.413Z,101108.19
2022-10-05T12:29:07.683Z,101114.44
2022-10-05T12:31:46.522Z,101109.38
2022-10-05T12:34:32.033Z,101111.25
2022-10-05T12:37:04.510Z,101110.25
2022-10-05T12:40:00.988Z,101093.78
2022-10-05T12:42:49.547Z,101095.06
2022-10-05T12:45:30.247Z,101104.00
2022-10-05T12:48:21.705Z,101102.84
2022-10-05T12:50:51.178Z,101101.69
2022-10-05T12:53:49.068Z,101106.72
2022-10-05T12:56:54.715Z,101112.84
2022-10-05T12:59:34.405Z,101105.84
2022-10-05T13:02:24.059Z,101106.31
2022-10-05T13:04:53.212Z,101097.19
2022-10-05T13:07:27.899Z,101105.13
2022-10-05T13:10:03.825Z,101110.88
2022-10-05T13:13:15.369Z,101098.75
2022-10-05T13:15:55.687Z,101096.34
2022-10-05T13:18:25.533Z,101102.25
2022-10-05T13:21:31.374Z,101104.84
2022-10-05T13:24:17.358Z,101102.41
2022-10-05T13:26:49.746Z,101101.69
2022-10-05T13:29:53.602Z,101097.38
2022-10-05T13:32:25.706Z,101086.66
2022-10-05T13:35:14.108Z,101089.69
2022-10-05T13:38:06.200Z,101090.13
2022-10-05T13:40:40.947Z,101090.84
2022-10-05T13:43:33.524Z,101092.59
2022-10-05T13:46:03.292Z,101088.25
2022-10-05T13:48:48.075Z,101088.38
2022-10-05T13:51:20.807Z,101093.03
2022-10-05T13:54:05.244Z,101095.63
2022-10-05T13:56:42.613Z,101087.84
2022-10-05T13:59:18.904Z,101082.06
2022-10-05T14:02:27.675Z,101087.53
2022-10-05T14:05:13.629Z,101101.69
2022-10-05T14:07:53.880Z,101095.91
2022-10-05T14:10:46.241Z,101084.50
2022-10-05T14:13:13.417Z,101091.56
2022-10-05T14:15:42.405Z,101089.84
2022-10-05T14:18:26.313Z,101079.44
2022-10-05T14:21:02.884Z,101072.78
2022-10-05T14:23:30.477Z,101070.22
2022-10-05T14:25:57.551Z,101071.38
2022-10-05T14:28:31.470Z,101064.72
2022-10-05T14:31:16.607Z,101065.31
2022-10-05T14:33:43.672Z,101062.69
2022-10-05T14:36:22.427Z,101055.34
2022-10-05T14:39:02.089Z,101046.53
2022-10-05T14:41:29.505Z,101043.94
2022-10-05T14:44:02.362Z,101048.00
2022-10-05T14:46:32.763Z,101044.09
2022-10-05T14:49:24.244Z,101043.66
2022-10-05T14:51:52.089Z,101040.78
2022-10-05T14:54:49.521Z,101033.13
2022-10-05T14:57:37.589Z,101030.66
2022-10-05T15:00:11.411Z,101030.81
2022-10-05T15:03:04.232Z,101018.84
2022-10-05T15:05:39.228Z,101020.56
2022-10-05T15:08:12.256Z,101014.66
2022-10-05T15:10:52.546Z,101013.50
2022-10-05T15:13:22.415Z,100999.34
2022-10-05T15:15:54.929Z,101001.81
2022-10-05T15:18:51.262Z,101004.66
2022-10-05T15:21:43.230Z,100989.09
2022-10-05T15:24:22.711Z,100993.88
2022-10-05T15:26:59.690Z,100984.63
2022-10-05T15:30:00.441Z,100976.41
2022-10-05T15:32:33.189Z,100969.03
2022-10-05T15:35:18.624Z,100967.19
2022-10-05T15:37:53.791Z,100968.91
2022-10-05T15:40:33.579Z,100964.56
2022-10-05T15:43:10.791Z,100966.03
2022-10-05T15:45:54.058Z,100973.22
2022-10-05T15:48:53.107Z,100968.19
2022-10-05T15:51:58.274Z,100961.84
2022-10-05T15:55:02.987Z,100963.00
2022-10-05T15:57:37.062Z,100955.50
2022-10-05T16:00:13.309Z,100959.66
2022-10-05T16:03:19.007Z,100950.88
2022-10-05T16:06:07.772Z,100941.63
2022-10-05T16:08:53.084Z,100942.19
2022-10-05T16:12:18.619Z,100943.06
2022-10-05T16:15:28.553Z,100940.63
2022-10-05T16:17:57.716Z,100935.44
2022-10-05T16:20:45.415Z,100928.94
2022-10-05T16:23:55.307Z,100937.31
2022-10-05T16:26:55.866Z,100926.63
2022-10-05T16:29:46.921Z,100928.50
2022-10-05T16:32:24.499Z,100924.03
2022-10-05T16:35:12.600Z,100926.78
2022-10-05T16:37:48.795Z,100927.47
2022-10-05T16:40:30.966Z,100935.00
2022-10-05T16:43:23.385Z,100935.09
2022-10-05T16:46:27.664Z,100934.41
2022-10-05T16:48:57.679Z,100925.06
2022-10-05T16:51:36.992Z,100920.44
2022-10-05T16:54:18.853Z,100918.41
2022-10-05T16:56:54.348Z,100912.94
2022-10-05T17:00:08.902Z,100907.28
2022-10-05T17:02:50.453Z,100905.84
2022-10-05T17:05:26.347Z,100897.63
2022-10-05T17:08:04.791Z,100897.34
2022-10-05T17:10:48.707Z,100901.38
2022-10-05T17:13:34.203Z,100899.66
2022-10-05T17:16:14.003Z,100904.72
2022-10-05T17:19:11.751Z,100894.44
2022-10-05T17:21:50.221Z,100891.00
2022-10-05T17:24:35.979Z,100887.66
2022-10-05T17:27:25.896Z,100884.94
2022-10-05T17:30:13.675Z,100877.75
2022-10-05T17:32:56.541Z,100874.72
2022-10-05T17:35:41.972Z,100875.13
2022-10-05T17:38:18.168Z,100866.59
2022-10-05T17:41:00.373Z,100861.72
2022-10-05T17:43:30.771Z,100858.22
2022-10-05T17:46:04.424Z,100859.53
2022-10-05T17:48:50.082Z,100836.31
2022-10-05T17:51:57.852Z,100838.03
2022-10-05T17:54:44.531Z,100825.38
2022-10-05T17:57:11.111Z,100825.22
2022-10-05T17:59:46.885Z,100824.63
2022-10-05T18:02:22.019Z,100814.84
2022-10-05T18:05:04.683Z,100812.06
2022-10-05T18:07:34.363Z,100803.41
2022-10-05T18:10:11.631Z,100801.09
2022-10-05T18:12:41.308Z,100801.84
2022-10-05T18:15:08.189Z,100791.59
2022-10-05T18:17:39.954Z,100791.31
2022-10-05T18:20:26.530Z,100795.78
2022-10-05T18:23:21.130Z,100796.63
2022-10-05T18:25:56.366Z,100793.47
2022-10-05T18:28:39.371Z,100789.41
2022-10-05T18:31:39.069Z,100787.09
2022-10-05T18:34:26.598Z,100786.53
2022-10-05T18:37:08.482Z,100784.75
2022-10-05T18:39:52.450Z,100792.88
2022-10-05T18:42:31.245Z,100786.19
2022-10-05T18:45:23.257Z,100783.63
2022-10-05T18:48:15.567Z,100787.81
2022-10-05T18:50:46.476Z,100793.16
2022-10-05T18:53:13.343Z,100790.78
2022-10-05T18:55:59.635Z,100788.81
2022-10-05T18:58:43.474Z,100782.31
2022-10-05T19:01:36.648Z,100772.38
2022-10-05T19:04:24.339Z,100775.09
2022-10-05T19:07:16.133Z,100775.00
2022-10-05T19:09:55.516Z,100773.13
2022-10-05T19:12:41.222Z,100766.16
2022-10-05T19:15:17.339Z,100760.78
2022-10-05T19:18:02.545Z,100751.84
2022-10-05T19:20:41.580Z,100771.22
2022-10-05T19:23:41.216Z,100771.44
2022-10-05T19:26:21.643Z,100779.88
2022-10-05T19:29:03.783Z,100778.38
2022-10-05T19:31:36.967Z,100778.06
2022-10-05T19:34:16.595Z,100785.75
2022-10-05T19:37:14.062Z,100776.25
2022-10-05T19:39:47.291Z,100782.53
2022-10-05T19:42:39.125Z,100791.34
2022-10-05T19:45:27.207Z,100786.00
2022-10-05T19:48:40.655Z,100782.34
2022-10-05T19:51:25.554Z,100790.00
2022-10-05T19:53:56.019Z,100793.88
2022-10-05T19:56:30.997Z,100803.16
2022-10-05T19:59:00.365Z,100805.09
2022-10-05T20:01:31.399Z,100806.28
2022-10-05T20:03:58.448Z,100810.47
2022-10-05T20:06:26.926Z,100820.63
2022-10-05T20:09:00.013Z,100820.75
2022-10-05T20:11:28.326Z,100828.97
2022-10-05T20:14:01.156Z,100824.19
2022-10-05T20:16:51.224Z,100831.38
2022-10-05T20:19:51.910Z,100836.59
2022-10-05T20:22:34.847Z,100832.31
2022-10-05T20:25:06.955Z,100831.56
2022-10-05T20:27:36.830Z,100832.69
2022-10-05T20:30:06.366Z,100834.44
2022-10-05T20:32:34.121Z,100829.38
2022-10-05T20:35:01.846Z,100835.13
2022-10-05T20:37:31.323Z,100832.94
2022-10-05T20:39:58.097Z,100838.59
2022-10-05T20:42:26.249Z,100832.41
2022-10-05T20:44:56.663Z,100826.50
2022-10-05T20:47:24.749Z,100836.09
2022-10-05T20:49:54.552Z,100831.47
2022-10-05T20:52:23.137Z,100849.06
2022-10-05T20:54:53.963Z,100838.94
2022-10-05T20:57:21.283Z,100845.34
2022-10-05T20:59:48.071Z,100858.72
2022-10-05T21:02:14.716Z,100857.56
2022-10-05T21:04:46.833Z,100857.75
2022-10-05T21:07:16.020Z,100864.97
2022-10-05T21:09:44.753Z,100854.03
2022-10-05T21:12:11.577Z,100847.25
2022-10-05T21:14:38.860Z,100854.03
2022-10-05T21:17:06.932Z,100846.66
2022-10-05T21:19:38.559Z,100844.28
2022-10-05T21:22:07.422Z,100828.94
2022-10-05T21:24:38.785Z,100832.41
2022-10-05T21:27:05.959Z,100834.38
2022-10-05T21:29:34.500Z,100839.53
2022-10-05T21:32:01.409Z,100829.78
2022-10-05T21:34:28.812Z,100822.75
2022-10-05T21:36:55.668Z,100840.81
2022-10-05T21:39:26.995Z,100838.47
2022-10-05T21:41:54.427Z,100836.59
2022-10-05T21:44:21.307Z,100842.66
2022-10-05T21:46:49.264Z,100848.16
2022-10-05T21:49:18.928Z,100845.50
2022-10-05T21:51:47.633Z,100833.09
2022-10-05T21:54:20.157Z,100828.63
2022-10-05T21:56:50.832Z,100826.50
2022-10-05T21:59:21.057Z,100832.84
2022-10-05T22:01:47.885Z,100833.00
2022-10-05T22:04:15.148Z,100833.00
2022-10-05T22:06:42.190Z,100833.72
2022-10-05T22:09:09.401Z,100854.13
2022-10-05T22:11:36.606Z,100847.31
2022-10-05T22:14:04.009Z,100832.63
2022-10-05T22:16:33.505Z,100839.16
2022-10-05T22:19:05.423Z,100823.56
2022-10-05T22:21:34.288Z,100824.75
2022-10-05T22:24:02.445Z,100818.88
2022-10-05T22:26:29.642Z,100800.69
2022-10-05T22:28:57.045Z,100782.25
2022-10-05T22:31:23.847Z,100766.97
2022-10-05T22:33:51.254Z,100745.63
2022-10-05T22:36:18.734Z,100726.31
2022-10-05T22:38:48.777Z,100717.09
2022-10-05T22:41:18.322Z,100696.78
2022-10-05T22:43:48.766Z,100685.13
2022-10-05T22:46:16.024Z,100677.06
2022-10-05T22:48:43.227Z,100673.03
2022-10-05T22:51:10.297Z,100662.22
2022-10-05T22:53:37.701Z,100641.63
2022-10-05T22:56:09.258Z,100650.28
2022-10-05T22:58:36.661Z,100643.09
2022-10-05T23:01:06.770Z,100650.88
2022-10-05T23:03:34.598Z,100648.25
2022-10-05T23:06:04.667Z,100648.25
2022-10-05T23:08:33.210Z,100645.53
2022-10-05T23:11:02.074Z,100636.75
2022-10-05T23:13:29.129Z,100631.28
2022-10-05T23:15:56.030Z,100643.66
2022-10-05T23:18:22.784Z,100638.78
2022-10-05T23:20:54.595Z,100626.69
2022-10-05T23:23:23.345Z,100617.91
2022-10-05T23:25:50.434Z,100625.38
2022-10-05T23:28:17.462Z,100624.22
2022-10-05T23:30:44.461Z,100642.22
2022-10-05T23:33:11.304Z,100617.78
2022-10-05T23:35:38.035Z,100637.47
2022-10-05T23:38:04.848Z,100653.47
2022-10-05T23:40:31.592Z,100663.25
2022-10-05T23:42:58.480Z,100662.69
2022-10-05T23:45:25.171Z,100671.63
2022-10-05T23:47:52.084Z,100665.00
2022-10-05T23:50:20.694Z,100684.88
2022-10-05T23:52:47.349Z,100685.72
2022-10-05T23:55:14.144Z,100685.59
2022-10-05T23:57:41.066Z,100698.13
